sensor_id;sensor_type;location;lat;lon;timestamp;pressure;altitude;pressure_sealevel;temperature;humidity
14902;BME280;7542;49.078;9.194;2024-02-16T00:00:42;98405.75;;;27.85;34.08
14902;BME280;7542;49.078;9.194;2024-02-16T00:01:46;98405.75;;;27.85;33.90
14902;BME280;7542;49.078;9.194;2024-02-16T00:02:48;98406.84;;;27.84;34.13
14902;BME280;7542;49.078;9.194;2024-02-16T00:03:51;98407.63;;;27.85;34.12
14902;BME280;7542;49.078;9.194;2024-02-16T00:04:53;98413.84;;;27.85;33.84
14902;BME280;7542;49.078;9.194;2024-02-16T00:05:56;98405.22;;;27.83;34.06
14902;BME280;7542;49.078;9.194;2024-02-16T00:06:58;98405.22;;;27.83;34.10
14902;BME280;7542;49.078;9.194;2024-02-16T00:08:01;98413.03;;;27.85;33.89
14902;BME280;7542;49.078;9.194;2024-02-16T00:09:05;98410.63;;;27.83;34.08
14902;BME280;7542;49.078;9.194;2024-02-16T00:10:08;98406.31;;;27.82;34.14
14902;BME280;7542;49.078;9.194;2024-02-16T00:11:22;98411.94;;;27.86;33.76
14902;BME280;7542;49.078;9.194;2024-02-16T00:12:25;98414.91;;;27.84;34.06
14902;BME280;7542;49.078;9.194;2024-02-16T00:13:27;98415.22;;;27.83;34.13
14902;BME280;7542;49.078;9.194;2024-02-16T00:14:30;98414.41;;;27.82;34.13
14902;BME280;7542;49.078;9.194;2024-02-16T00:15:32;98413.31;;;27.83;33.94
14902;BME280;7542;49.078;9.194;2024-02-16T00:16:35;98411.13;;;27.85;34.14
14902;BME280;7542;49.078;9.194;2024-02-16T00:17:38;98407.94;;;27.83;34.01
14902;BME280;7542;49.078;9.194;2024-02-16T00:18:40;98410.34;;;27.85;33.85
14902;BME280;7542;49.078;9.194;2024-02-16T00:19:42;98403.63;;;27.82;33.86
14902;BME280;7542;49.078;9.194;2024-02-16T00:20:45;98411.72;;;27.82;34.10
14902;BME280;7542;49.078;9.194;2024-02-16T00:21:48;98407.41;;;27.81;34.06
14902;BME280;7542;49.078;9.194;2024-02-16T00:22:51;98411.72;;;27.82;33.96
14902;BME280;7542;49.078;9.194;2024-02-16T00:23:54;98405.53;;;27.82;34.14
14902;BME280;7542;49.078;9.194;2024-02-16T00:24:56;98408.22;;;27.82;34.03
14902;BME280;7542;49.078;9.194;2024-02-16T00:25:58;98405.81;;;27.80;34.14
14902;BME280;7542;49.078;9.194;2024-02-16T00:27:00;98410.13;;;27.81;33.88
14902;BME280;7542;49.078;9.194;2024-02-16T00:28:04;98402.84;;;27.82;33.88
14902;BME280;7542;49.078;9.194;2024-02-16T00:29:07;98408.50;;;27.80;34.02
14902;BME280;7542;49.078;9.194;2024-02-16T00:30:11;98411.72;;;27.82;34.10
14902;BME280;7542;49.078;9.194;2024-02-16T00:31:13;98405.53;;;27.82;34.05
14902;BME280;7542;49.078;9.194;2024-02-16T00:32:16;98406.63;;;27.81;34.11
14902;BME280;7542;49.078;9.194;2024-02-16T00:33:18;98411.22;;;27.80;33.94
14902;BME280;7542;49.078;9.194;2024-02-16T00:34:21;98411.22;;;27.80;34.03
14902;BME280;7542;49.078;9.194;2024-02-16T00:35:24;98405.81;;;27.80;33.89
14902;BME280;7542;49.078;9.194;2024-02-16T00:36:29;98410.13;;;27.81;33.93
14902;BME280;7542;49.078;9.194;2024-02-16T00:37:32;98406.06;;;27.79;34.15
14902;BME280;7542;49.078;9.194;2024-02-16T00:38:35;98415.00;;;27.79;34.22
14902;BME280;7542;49.078;9.194;2024-02-16T00:39:39;98409.88;;;27.78;33.97
14902;BME280;7542;49.078;9.194;2024-02-16T00:40:44;98405.28;;;27.78;33.96
14902;BME280;7542;49.078;9.194;2024-02-16T00:41:46;98404.22;;;27.79;33.96
14902;BME280;7542;49.078;9.194;2024-02-16T00:42:49;98406.06;;;27.79;34.03
14902;BME280;7542;49.078;9.194;2024-02-16T00:43:51;98399.88;;;27.78;33.94
14902;BME280;7542;49.078;9.194;2024-02-16T00:44:54;98403.16;;;27.75;34.25
14902;BME280;7542;49.078;9.194;2024-02-16T00:45:57;98402.06;;;27.76;34.20
14902;BME280;7542;49.078;9.194;2024-02-16T00:46:59;98396.69;;;27.76;34.14
14902;BME280;7542;49.078;9.194;2024-02-16T00:48:02;98399.66;;;27.75;34.06
14902;BME280;7542;49.078;9.194;2024-02-16T00:49:05;98394.00;;;27.76;34.16
14902;BME280;7542;49.078;9.194;2024-02-16T00:50:08;98394.00;;;27.76;33.97
14902;BME280;7542;49.078;9.194;2024-02-16T00:51:11;98399.66;;;27.75;34.15
14902;BME280;7542;49.078;9.194;2024-02-16T00:52:14;98393.47;;;27.74;33.99
14902;BME280;7542;49.078;9.194;2024-02-16T00:53:16;98401.03;;;27.72;34.21
14902;BME280;7542;49.078;9.194;2024-02-16T00:54:19;98396.75;;;27.71;34.25
14902;BME280;7542;49.078;9.194;2024-02-16T00:55:22;98395.38;;;27.73;34.15
14902;BME280;7542;49.078;9.194;2024-02-16T00:56:25;98390.78;;;27.74;34.01
14902;BME280;7542;49.078;9.194;2024-02-16T00:57:27;98394.56;;;27.73;34.02
14902;BME280;7542;49.078;9.194;2024-02-16T00:58:29;98393.75;;;27.72;34.25
14902;BME280;7542;49.078;9.194;2024-02-16T00:59:32;98398.66;;;27.70;34.03
14902;BME280;7542;49.078;9.194;2024-02-16T01:00:35;98392.97;;;27.72;34.19
14902;BME280;7542;49.078;9.194;2024-02-16T01:01:38;98387.56;;;27.72;33.98
14902;BME280;7542;49.078;9.194;2024-02-16T01:02:40;98391.88;;;27.73;34.01
14902;BME280;7542;49.078;9.194;2024-02-16T01:03:43;98392.44;;;27.70;34.14
14902;BME280;7542;49.078;9.194;2024-02-16T01:04:45;98395.94;;;27.70;34.21
14902;BME280;7542;49.078;9.194;2024-02-16T01:05:49;98403.22;;;27.70;34.01
14902;BME280;7542;49.078;9.194;2024-02-16T01:06:51;98394.06;;;27.71;34.28
14902;BME280;7542;49.078;9.194;2024-02-16T01:07:53;98391.94;;;27.68;34.15
14902;BME280;7542;49.078;9.194;2024-02-16T01:08:56;98388.16;;;27.69;34.06
14902;BME280;7542;49.078;9.194;2024-02-16T01:09:58;98397.56;;;27.71;34.06
14902;BME280;7542;49.078;9.194;2024-02-16T01:11:02;98390.06;;;27.68;34.24
14902;BME280;7542;49.078;9.194;2024-02-16T01:12:05;98393.53;;;27.69;34.20
14902;BME280;7542;49.078;9.194;2024-02-16T01:13:07;98396.50;;;27.67;34.04
14902;BME280;7542;49.078;9.194;2024-02-16T01:14:09;98397.34;;;27.68;34.00
14902;BME280;7542;49.078;9.194;2024-02-16T01:15:12;98401.09;;;27.67;34.11
14902;BME280;7542;49.078;9.194;2024-02-16T01:16:15;98401.88;;;27.67;34.29
14902;BME280;7542;49.078;9.194;2024-02-16T01:17:19;98409.16;;;27.67;34.02
14902;BME280;7542;49.078;9.194;2024-02-16T01:18:22;98404.06;;;27.65;34.22
14902;BME280;7542;49.078;9.194;2024-02-16T01:19:24;98401.38;;;27.65;34.24
14902;BME280;7542;49.078;9.194;2024-02-16T01:20:27;98402.97;;;27.66;34.10
14902;BME280;7542;49.078;9.194;2024-02-16T01:21:33;98401.63;;;27.64;34.04
14902;BME280;7542;49.078;9.194;2024-02-16T01:22:36;98405.97;;;27.65;34.20
14902;BME280;7542;49.078;9.194;2024-02-16T01:23:38;98416.72;;;27.65;34.22
14902;BME280;7542;49.078;9.194;2024-02-16T01:24:40;98416.72;;;27.65;34.20
14902;BME280;7542;49.078;9.194;2024-02-16T01:25:43;98417.00;;;27.63;34.21
14902;BME280;7542;49.078;9.194;2024-02-16T01:26:45;98407.03;;;27.64;33.97
14902;BME280;7542;49.078;9.194;2024-02-16T01:27:47;98411.91;;;27.62;34.09
14902;BME280;7542;49.078;9.194;2024-02-16T01:28:50;98410.00;;;27.62;34.08
14902;BME280;7542;49.078;9.194;2024-02-16T01:29:53;98404.31;;;27.64;34.16
14902;BME280;7542;49.078;9.194;2024-02-16T01:30:55;98403.53;;;27.63;33.96
14902;BME280;7542;49.078;9.194;2024-02-16T01:32:00;98414.03;;;27.65;33.97
14902;BME280;7542;49.078;9.194;2024-02-16T01:33:04;98406.22;;;27.63;34.17
14902;BME280;7542;49.078;9.194;2024-02-16T01:34:07;98408.91;;;27.63;34.02
14902;BME280;7542;49.078;9.194;2024-02-16T01:35:10;98418.09;;;27.62;34.14
14902;BME280;7542;49.078;9.194;2024-02-16T01:36:13;98420.78;;;27.62;34.17
14902;BME280;7542;49.078;9.194;2024-02-16T01:37:16;98420.50;;;27.64;34.14
14902;BME280;7542;49.078;9.194;2024-02-16T01:38:18;98410.81;;;27.63;33.90
14902;BME280;7542;49.078;9.194;2024-02-16T01:39:21;98412.94;;;27.66;34.08
14902;BME280;7542;49.078;9.194;2024-02-16T01:40:23;98409.19;;;27.62;34.16
14902;BME280;7542;49.078;9.194;2024-02-16T01:41:28;98417.56;;;27.60;34.06
14902;BME280;7542;49.078;9.194;2024-02-16T01:42:30;98416.47;;;27.61;34.16
14902;BME280;7542;49.078;9.194;2024-02-16T01:43:33;98405.41;;;27.63;34.24
14902;BME280;7542;49.078;9.194;2024-02-16T01:44:36;98401.91;;;27.62;33.98
14902;BME280;7542;49.078;9.194;2024-02-16T01:45:39;98405.72;;;27.61;34.03
14902;BME280;7542;49.078;9.194;2024-02-16T01:46:42;98403.59;;;27.58;34.09
14902;BME280;7542;49.078;9.194;2024-02-16T01:47:47;98401.69;;;27.59;34.12
14902;BME280;7542;49.078;9.194;2024-02-16T01:48:50;98403.31;;;27.60;34.14
14902;BME280;7542;49.078;9.194;2024-02-16T01:49:53;98392.81;;;27.58;34.08
14902;BME280;7542;49.078;9.194;2024-02-16T01:50:56;98391.72;;;27.59;34.28
14902;BME280;7542;49.078;9.194;2024-02-16T01:51:59;98394.72;;;27.58;34.08
14902;BME280;7542;49.078;9.194;2024-02-16T01:53:02;98396.31;;;27.59;34.05
14902;BME280;7542;49.078;9.194;2024-02-16T01:54:05;98393.91;;;27.57;34.04
14902;BME280;7542;49.078;9.194;2024-02-16T01:55:08;98392.00;;;27.58;34.09
14902;BME280;7542;49.078;9.194;2024-02-16T01:56:13;98398.47;;;27.57;34.30
14902;BME280;7542;49.078;9.194;2024-02-16T01:57:16;98395.25;;;27.55;34.30
14902;BME280;7542;49.078;9.194;2024-02-16T01:58:19;98399.28;;;27.57;34.36
14902;BME280;7542;49.078;9.194;2024-02-16T01:59:21;98399.28;;;27.57;34.03
14902;BME280;7542;49.078;9.194;2024-02-16T02:00:24;98396.84;;;27.56;34.38
14902;BME280;7542;49.078;9.194;2024-02-16T02:01:27;98399.56;;;27.56;34.26
14902;BME280;7542;49.078;9.194;2024-02-16T02:02:29;98396.59;;;27.57;34.31
14902;BME280;7542;49.078;9.194;2024-02-16T02:03:31;98398.75;;;27.55;34.31
14902;BME280;7542;49.078;9.194;2024-02-16T02:04:34;98401.44;;;27.55;34.33
14902;BME280;7542;49.078;9.194;2024-02-16T02:05:44;98393.06;;;27.57;34.36
14902;BME280;7542;49.078;9.194;2024-02-16T02:06:48;98394.16;;;27.56;34.03
14902;BME280;7542;49.078;9.194;2024-02-16T02:07:51;98394.16;;;27.56;34.29
14902;BME280;7542;49.078;9.194;2024-02-16T02:08:53;98386.38;;;27.54;34.27
14902;BME280;7542;49.078;9.194;2024-02-16T02:09:56;98385.28;;;27.55;34.31
14902;BME280;7542;49.078;9.194;2024-02-16T02:10:59;98394.75;;;27.53;34.34
14902;BME280;7542;49.078;9.194;2024-02-16T02:12:01;98386.66;;;27.53;34.35
14902;BME280;7542;49.078;9.194;2024-02-16T02:13:04;98385.06;;;27.52;34.15
14902;BME280;7542;49.078;9.194;2024-02-16T02:14:06;98378.06;;;27.51;34.23
14902;BME280;7542;49.078;9.194;2024-02-16T02:15:09;98372.41;;;27.52;34.35
14902;BME280;7542;49.078;9.194;2024-02-16T02:16:12;98382.88;;;27.54;34.15
14902;BME280;7542;49.078;9.194;2024-02-16T02:17:16;98379.38;;;27.53;34.41
14902;BME280;7542;49.078;9.194;2024-02-16T02:18:19;98385.06;;;27.52;34.13
14902;BME280;7542;49.078;9.194;2024-02-16T02:19:22;98375.38;;;27.51;34.27
14902;BME280;7542;49.078;9.194;2024-02-16T02:20:25;98378.88;;;27.51;34.08
14902;BME280;7542;49.078;9.194;2024-02-16T02:21:28;98377.28;;;27.50;34.09
14902;BME280;7542;49.078;9.194;2024-02-16T02:22:30;98374.28;;;27.52;34.05
14902;BME280;7542;49.078;9.194;2024-02-16T02:23:32;98368.38;;;27.50;34.06
14902;BME280;7542;49.078;9.194;2024-02-16T02:24:36;98372.47;;;27.47;34.05
14902;BME280;7542;49.078;9.194;2024-02-16T02:25:38;98367.59;;;27.49;34.20
14902;BME280;7542;49.078;9.194;2024-02-16T02:26:42;98372.16;;;27.49;34.02
14902;BME280;7542;49.078;9.194;2024-02-16T02:27:44;98371.38;;;27.48;34.02
14902;BME280;7542;49.078;9.194;2024-02-16T02:28:47;98369.47;;;27.49;34.15
14902;BME280;7542;49.078;9.194;2024-02-16T02:29:50;98365.69;;;27.50;34.25
14902;BME280;7542;49.078;9.194;2024-02-16T02:30:53;98366.00;;;27.48;34.00
14902;BME280;7542;49.078;9.194;2024-02-16T02:31:55;98365.19;;;27.48;34.17
14902;BME280;7542;49.078;9.194;2024-02-16T02:32:58;98361.69;;;27.47;33.98
14902;BME280;7542;49.078;9.194;2024-02-16T02:34:01;98358.72;;;27.49;34.03
14902;BME280;7542;49.078;9.194;2024-02-16T02:35:05;98357.16;;;27.42;34.08
14902;BME280;7542;49.078;9.194;2024-02-16T02:36:07;98371.38;;;27.48;33.86
14902;BME280;7542;49.078;9.194;2024-02-16T02:37:10;98359.81;;;27.48;34.21
14902;BME280;7542;49.078;9.194;2024-02-16T02:38:12;98366.28;;;27.47;34.10
14902;BME280;7542;49.078;9.194;2024-02-16T02:39:14;98360.06;;;27.46;34.11
14902;BME280;7542;49.078;9.194;2024-02-16T02:40:17;98357.66;;;27.44;34.18
14902;BME280;7542;49.078;9.194;2024-02-16T02:41:20;98351.47;;;27.44;33.98
14902;BME280;7542;49.078;9.194;2024-02-16T02:42:22;98357.09;;;27.48;34.14
14902;BME280;7542;49.078;9.194;2024-02-16T02:43:25;98349.88;;;27.43;34.25
14902;BME280;7542;49.078;9.194;2024-02-16T02:44:27;98349.88;;;27.43;34.03
14902;BME280;7542;49.078;9.194;2024-02-16T02:45:30;98360.63;;;27.43;34.22
14902;BME280;7542;49.078;9.194;2024-02-16T02:46:33;98357.16;;;27.42;33.98
14902;BME280;7542;49.078;9.194;2024-02-16T02:47:35;98357.94;;;27.43;34.20
14902;BME280;7542;49.078;9.194;2024-02-16T02:48:38;98356.84;;;27.44;34.04
14902;BME280;7542;49.078;9.194;2024-02-16T02:49:40;98355.25;;;27.43;34.03
14902;BME280;7542;49.078;9.194;2024-02-16T02:50:43;98359.53;;;27.44;34.06
14902;BME280;7542;49.078;9.194;2024-02-16T02:51:45;98355.53;;;27.41;34.28
14902;BME280;7542;49.078;9.194;2024-02-16T02:52:48;98352.84;;;27.41;34.01
14902;BME280;7542;49.078;9.194;2024-02-16T02:53:50;98349.66;;;27.39;34.19
14902;BME280;7542;49.078;9.194;2024-02-16T02:54:53;98347.47;;;27.41;34.16
14902;BME280;7542;49.078;9.194;2024-02-16T02:55:55;98350.66;;;27.43;34.28
14902;BME280;7542;49.078;9.194;2024-02-16T02:56:58;98351.75;;;27.42;34.23
14902;BME280;7542;49.078;9.194;2024-02-16T02:58:00;98356.06;;;27.43;34.12
14902;BME280;7542;49.078;9.194;2024-02-16T02:59:02;98357.16;;;27.42;34.10
14902;BME280;7542;49.078;9.194;2024-02-16T03:00:08;98359.84;;;27.42;34.11
14902;BME280;7542;49.078;9.194;2024-02-16T03:01:15;98355.25;;;27.43;34.19
14902;BME280;7542;49.078;9.194;2024-02-16T03:02:17;98351.75;;;27.42;34.18
14902;BME280;7542;49.078;9.194;2024-02-16T03:03:20;98350.94;;;27.42;34.07
14902;BME280;7542;49.078;9.194;2024-02-16T03:04:23;98353.13;;;27.40;34.09
14902;BME280;7542;49.078;9.194;2024-02-16T03:05:25;98350.22;;;27.36;34.28
14902;BME280;7542;49.078;9.194;2024-02-16T03:06:28;98353.44;;;27.38;34.21
14902;BME280;7542;49.078;9.194;2024-02-16T03:07:30;98348.84;;;27.39;34.34
14902;BME280;7542;49.078;9.194;2024-02-16T03:08:37;98351.53;;;27.39;34.31
14902;BME280;7542;49.078;9.194;2024-02-16T03:09:40;98351.25;;;27.40;34.09
14902;BME280;7542;49.078;9.194;2024-02-16T03:10:44;98354.50;;;27.37;34.15
14902;BME280;7542;49.078;9.194;2024-02-16T03:11:46;98356.41;;;27.37;34.35
14902;BME280;7542;49.078;9.194;2024-02-16T03:12:49;98350.22;;;27.36;34.16
14902;BME280;7542;49.078;9.194;2024-02-16T03:13:51;98353.72;;;27.37;34.30
14902;BME280;7542;49.078;9.194;2024-02-16T03:14:54;98350.47;;;27.35;34.31
14902;BME280;7542;49.078;9.194;2024-02-16T03:15:56;98350.22;;;27.36;34.22
14902;BME280;7542;49.078;9.194;2024-02-16T03:16:58;98351.81;;;27.37;34.12
14902;BME280;7542;49.078;9.194;2024-02-16T03:18:01;98348.31;;;27.37;34.26
14902;BME280;7542;49.078;9.194;2024-02-16T03:19:06;98355.31;;;27.38;34.30
14902;BME280;7542;49.078;9.194;2024-02-16T03:20:11;98348.63;;;27.35;34.16
14902;BME280;7542;49.078;9.194;2024-02-16T03:21:14;98345.94;;;27.35;34.35
14902;BME280;7542;49.078;9.194;2024-02-16T03:22:21;98346.97;;;27.34;34.36
14902;BME280;7542;49.078;9.194;2024-02-16T03:23:23;98345.09;;;27.35;34.30
14902;BME280;7542;49.078;9.194;2024-02-16T03:24:26;98340.81;;;27.34;34.22
14902;BME280;7542;49.078;9.194;2024-02-16T03:25:29;98350.25;;;27.31;34.20
14902;BME280;7542;49.078;9.194;2024-02-16T03:26:32;98348.66;;;27.30;34.18
14902;BME280;7542;49.078;9.194;2024-02-16T03:27:34;98345.66;;;27.32;34.26
14902;BME280;7542;49.078;9.194;2024-02-16T03:28:37;98345.66;;;27.32;34.14
14902;BME280;7542;49.078;9.194;2024-02-16T03:29:40;98344.59;;;27.33;34.08
14902;BME280;7542;49.078;9.194;2024-02-16T03:30:43;98345.66;;;27.32;34.07
14902;BME280;7542;49.078;9.194;2024-02-16T03:31:45;98351.34;;;27.30;34.06
14902;BME280;7542;49.078;9.194;2024-02-16T03:32:51;98345.66;;;27.32;34.23
14902;BME280;7542;49.078;9.194;2024-02-16T03:33:55;98342.97;;;27.32;33.98
14902;BME280;7542;49.078;9.194;2024-02-16T03:34:58;98348.38;;;27.32;34.01
14902;BME280;7542;49.078;9.194;2024-02-16T03:36:01;98352.16;;;27.31;34.13
14902;BME280;7542;49.078;9.194;2024-02-16T03:37:04;98360.50;;;27.29;34.02
14902;BME280;7542;49.078;9.194;2024-02-16T03:38:07;98362.13;;;27.30;34.06
14902;BME280;7542;49.078;9.194;2024-02-16T03:39:10;98359.41;;;27.30;33.89
14902;BME280;7542;49.078;9.194;2024-02-16T03:40:13;98362.13;;;27.30;34.01
14902;BME280;7542;49.078;9.194;2024-02-16T03:41:19;98358.34;;;27.31;34.09
14902;BME280;7542;49.078;9.194;2024-02-16T03:42:21;98360.50;;;27.29;34.13
14902;BME280;7542;49.078;9.194;2024-02-16T03:43:24;98361.59;;;27.28;33.89
14902;BME280;7542;49.078;9.194;2024-02-16T03:44:26;98363.19;;;27.29;33.79
14902;BME280;7542;49.078;9.194;2024-02-16T03:45:28;98360.81;;;27.28;34.08
14902;BME280;7542;49.078;9.194;2024-02-16T03:46:31;98368.59;;;27.29;34.13
14902;BME280;7542;49.078;9.194;2024-02-16T03:47:33;98369.69;;;27.28;34.02
14902;BME280;7542;49.078;9.194;2024-02-16T03:48:36;98365.91;;;27.29;33.90
14902;BME280;7542;49.078;9.194;2024-02-16T03:49:40;98366.97;;;27.28;34.08
14902;BME280;7542;49.078;9.194;2024-02-16T03:50:42;98369.69;;;27.28;34.16
14902;BME280;7542;49.078;9.194;2024-02-16T03:51:44;98369.97;;;27.27;34.13
14902;BME280;7542;49.078;9.194;2024-02-16T03:52:47;98368.06;;;27.27;33.98
14902;BME280;7542;49.078;9.194;2024-02-16T03:53:50;98369.16;;;27.26;34.07
14902;BME280;7542;49.078;9.194;2024-02-16T03:54:52;98369.97;;;27.27;33.97
14902;BME280;7542;49.078;9.194;2024-02-16T03:55:55;98366.97;;;27.28;34.07
14902;BME280;7542;49.078;9.194;2024-02-16T03:56:58;98370.50;;;27.24;34.31
14902;BME280;7542;49.078;9.194;2024-02-16T03:58:00;98369.44;;;27.25;34.11
14902;BME280;7542;49.078;9.194;2024-02-16T03:59:02;98369.97;;;27.27;34.04
14902;BME280;7542;49.078;9.194;2024-02-16T04:00:11;98364.88;;;27.25;34.18
14902;BME280;7542;49.078;9.194;2024-02-16T04:01:15;98371.84;;;27.26;34.21
14902;BME280;7542;49.078;9.194;2024-02-16T04:02:17;98365.66;;;27.26;34.09
14902;BME280;7542;49.078;9.194;2024-02-16T04:03:20;98362.19;;;27.25;34.09
14902;BME280;7542;49.078;9.194;2024-02-16T04:04:23;98364.59;;;27.27;34.14
14902;BME280;7542;49.078;9.194;2024-02-16T04:05:25;98368.63;;;27.24;34.30
14902;BME280;7542;49.078;9.194;2024-02-16T04:06:33;98369.72;;;27.23;34.20
14902;BME280;7542;49.078;9.194;2024-02-16T04:07:36;98367.00;;;27.23;34.37
14902;BME280;7542;49.078;9.194;2024-02-16T04:08:38;98365.94;;;27.24;34.18
14902;BME280;7542;49.078;9.194;2024-02-16T04:09:41;98365.13;;;27.24;33.99
14902;BME280;7542;49.078;9.194;2024-02-16T04:10:45;98365.94;;;27.24;34.04
14902;BME280;7542;49.078;9.194;2024-02-16T04:11:48;98371.31;;;27.24;34.19
14902;BME280;7542;49.078;9.194;2024-02-16T04:12:50;98365.41;;;27.22;34.19
14902;BME280;7542;49.078;9.194;2024-02-16T04:13:53;98360.84;;;27.23;34.24
14902;BME280;7542;49.078;9.194;2024-02-16T04:14:55;98362.72;;;27.22;34.24
14902;BME280;7542;49.078;9.194;2024-02-16T04:15:58;98366.50;;;27.21;34.38
14902;BME280;7542;49.078;9.194;2024-02-16T04:17:00;98368.91;;;27.23;34.14
14902;BME280;7542;49.078;9.194;2024-02-16T04:18:03;98371.59;;;27.23;34.17
14902;BME280;7542;49.078;9.194;2024-02-16T04:19:06;98367.00;;;27.23;34.26
14902;BME280;7542;49.078;9.194;2024-02-16T04:20:08;98362.22;;;27.20;34.21
14902;BME280;7542;49.078;9.194;2024-02-16T04:21:11;98359.50;;;27.20;34.34
14902;BME280;7542;49.078;9.194;2024-02-16T04:22:14;98363.00;;;27.21;34.35
14902;BME280;7542;49.078;9.194;2024-02-16T04:23:16;98365.19;;;27.19;34.34
14902;BME280;7542;49.078;9.194;2024-02-16T04:24:18;98363.00;;;27.21;34.33
14902;BME280;7542;49.078;9.194;2024-02-16T04:25:21;98375.94;;;27.19;34.25
14902;BME280;7542;49.078;9.194;2024-02-16T04:26:23;98367.88;;;27.19;34.27
14902;BME280;7542;49.078;9.194;2024-02-16T04:27:27;98368.38;;;27.21;34.17
14902;BME280;7542;49.078;9.194;2024-02-16T04:28:29;98378.66;;;27.19;34.08
14902;BME280;7542;49.078;9.194;2024-02-16T04:29:32;98373.25;;;27.19;34.21
14902;BME280;7542;49.078;9.194;2024-02-16T04:30:34;98377.84;;;27.18;33.93
14902;BME280;7542;49.078;9.194;2024-02-16T04:31:40;98374.06;;;27.19;34.16
14902;BME280;7542;49.078;9.194;2024-02-16T04:32:42;98380.25;;;27.20;33.94
14902;BME280;7542;49.078;9.194;2024-02-16T04:33:45;98371.94;;;27.16;34.07
14902;BME280;7542;49.078;9.194;2024-02-16T04:34:47;98385.91;;;27.18;33.96
14902;BME280;7542;49.078;9.194;2024-02-16T04:35:51;98378.94;;;27.17;33.83
14902;BME280;7542;49.078;9.194;2024-02-16T04:36:53;98379.72;;;27.18;33.98
14902;BME280;7542;49.078;9.194;2024-02-16T04:37:56;98383.22;;;27.18;33.94
14902;BME280;7542;49.078;9.194;2024-02-16T04:38:58;98384.31;;;27.17;34.03
14902;BME280;7542;49.078;9.194;2024-02-16T04:40:01;98377.63;;;27.14;34.02
14902;BME280;7542;49.078;9.194;2024-02-16T04:41:05;98385.91;;;27.18;34.05
14902;BME280;7542;49.078;9.194;2024-02-16T04:42:08;98377.63;;;27.14;34.16
14902;BME280;7542;49.078;9.194;2024-02-16T04:43:11;98378.41;;;27.15;34.14
14902;BME280;7542;49.078;9.194;2024-02-16T04:44:14;98378.13;;;27.17;33.87
14902;BME280;7542;49.078;9.194;2024-02-16T04:45:16;98384.59;;;27.15;33.91
14902;BME280;7542;49.078;9.194;2024-02-16T04:46:20;98379.50;;;27.14;34.12
14902;BME280;7542;49.078;9.194;2024-02-16T04:47:24;98378.41;;;27.15;33.95
14902;BME280;7542;49.078;9.194;2024-02-16T04:48:27;98386.50;;;27.15;34.00
14902;BME280;7542;49.078;9.194;2024-02-16T04:49:31;98381.38;;;27.13;34.17
14902;BME280;7542;49.078;9.194;2024-02-16T04:50:34;98380.56;;;27.13;34.07
14902;BME280;7542;49.078;9.194;2024-02-16T04:51:37;98381.38;;;27.13;33.89
14902;BME280;7542;49.078;9.194;2024-02-16T04:52:41;98376.81;;;27.14;34.13
14902;BME280;7542;49.078;9.194;2024-02-16T04:53:46;98376.28;;;27.12;33.99
14902;BME280;7542;49.078;9.194;2024-02-16T04:54:48;98374.13;;;27.14;33.82
14902;BME280;7542;49.078;9.194;2024-02-16T04:55:51;98380.03;;;27.16;33.92
14902;BME280;7542;49.078;9.194;2024-02-16T04:56:53;98377.88;;;27.13;34.13
14902;BME280;7542;49.078;9.194;2024-02-16T04:57:56;98377.88;;;27.13;33.99
14902;BME280;7542;49.078;9.194;2024-02-16T04:58:59;98379.75;;;27.12;33.83
14902;BME280;7542;49.078;9.194;2024-02-16T05:00:02;98394.03;;;27.13;34.03
14902;BME280;7542;49.078;9.194;2024-02-16T05:01:05;98388.63;;;27.13;34.00
14902;BME280;7542;49.078;9.194;2024-02-16T05:02:09;98390.81;;;27.11;33.92
14902;BME280;7542;49.078;9.194;2024-02-16T05:03:11;98400.78;;;27.10;33.79
14902;BME280;7542;49.078;9.194;2024-02-16T05:04:14;98397.00;;;27.11;34.02
14902;BME280;7542;49.078;9.194;2024-02-16T05:05:19;98401.28;;;27.12;33.88
14902;BME280;7542;49.078;9.194;2024-02-16T05:06:21;98397.81;;;27.12;33.98
14902;BME280;7542;49.078;9.194;2024-02-16T05:07:25;98403.97;;;27.12;33.78
14902;BME280;7542;49.078;9.194;2024-02-16T05:08:28;98401.56;;;27.11;33.72
14902;BME280;7542;49.078;9.194;2024-02-16T05:09:32;98414.75;;;27.12;34.01
14902;BME280;7542;49.078;9.194;2024-02-16T05:10:35;98403.19;;;27.12;33.88
14902;BME280;7542;49.078;9.194;2024-02-16T05:11:37;98407.25;;;27.09;34.15
14902;BME280;7542;49.078;9.194;2024-02-16T05:12:40;98410.75;;;27.10;33.92
14902;BME280;7542;49.078;9.194;2024-02-16T05:13:43;98408.06;;;27.10;33.78
14902;BME280;7542;49.078;9.194;2024-02-16T05:14:49;98405.88;;;27.12;33.73
14902;BME280;7542;49.078;9.194;2024-02-16T05:15:51;98406.16;;;27.10;33.98
14902;BME280;7542;49.078;9.194;2024-02-16T05:16:57;98401.88;;;27.09;33.81
14902;BME280;7542;49.078;9.194;2024-02-16T05:18:01;98405.06;;;27.11;33.91
14902;BME280;7542;49.078;9.194;2024-02-16T05:19:04;98410.75;;;27.10;33.92
14902;BME280;7542;49.078;9.194;2024-02-16T05:20:13;98409.13;;;27.14;33.87
14902;BME280;7542;49.078;9.194;2024-02-16T05:21:19;98412.06;;;27.12;33.93
14902;BME280;7542;49.078;9.194;2024-02-16T05:22:21;98412.34;;;27.11;33.95
14902;BME280;7542;49.078;9.194;2024-02-16T05:23:24;98405.06;;;27.11;33.95
14902;BME280;7542;49.078;9.194;2024-02-16T05:24:27;98411.25;;;27.12;33.87
14902;BME280;7542;49.078;9.194;2024-02-16T05:25:29;98413.94;;;27.12;33.98
14902;BME280;7542;49.078;9.194;2024-02-16T05:26:32;98412.06;;;27.12;34.08
14902;BME280;7542;49.078;9.194;2024-02-16T05:27:34;98410.47;;;27.11;33.92
14902;BME280;7542;49.078;9.194;2024-02-16T05:28:37;98417.72;;;27.11;34.11
14902;BME280;7542;49.078;9.194;2024-02-16T05:29:40;98412.31;;;27.16;33.98
14902;BME280;7542;49.078;9.194;2024-02-16T05:30:43;98414.22;;;27.15;34.02
14902;BME280;7542;49.078;9.194;2024-02-16T05:31:46;98415.56;;;27.13;33.96
14902;BME280;7542;49.078;9.194;2024-02-16T05:32:48;98412.06;;;27.12;33.98
14902;BME280;7542;49.078;9.194;2024-02-16T05:33:51;98418.00;;;27.14;34.06
14902;BME280;7542;49.078;9.194;2024-02-16T05:34:54;98418.25;;;27.13;34.16
14902;BME280;7542;49.078;9.194;2024-02-16T05:35:57;98408.28;;;27.13;34.02
14902;BME280;7542;49.078;9.194;2024-02-16T05:37:01;98406.41;;;27.14;33.96
14902;BME280;7542;49.078;9.194;2024-02-16T05:38:03;98410.72;;;27.15;34.09